Time;durP1;ratioP1;P1;durP2;ratioP2;P2;SDS_P1;SDS_P2;PMS_P1;PMS_P2;Temp;Humidity;BMP_temperature;BMP_pressure;BME280_temperature;BME280_humidity;BME280_pressure;Samples;Min_cycle;Max_cycle;Signal;HPM_P1;HPM_P2
2021/09/17 00:00:43;;;;;;;58.27;2.70;;;12.30;97.40;;;;;;5013979;28;20884;-70
2021/09/17 00:03:10;;;;;;;58.23;2.50;;;12.30;97.40;;;;;;5011847;28;20538;-70
2021/09/17 00:05:37;;;;;;;58.43;2.80;;;12.30;97.40;;;;;;5011232;28;20533;-70
2021/09/17 00:08:05;;;;;;;58.20;2.40;;;12.30;97.50;;;;;;5011437;28;20474;-70
2021/09/17 00:10:31;;;;;;;58.50;2.90;;;12.20;97.60;;;;;;5012133;28;20716;-71
2021/09/17 00:13:00;;;;;;;58.23;2.60;;;12.20;97.60;;;;;;5011615;28;20460;-70
2021/09/17 00:15:26;;;;;;;58.47;2.90;;;12.10;97.60;;;;;;5009089;28;21029;-70
2021/09/17 00:17:53;;;;;;;58.17;2.80;;;12.10;97.60;;;;;;5011762;28;20470;-70
2021/09/17 00:20:20;;;;;;;58.30;2.70;;;12.10;97.70;;;;;;5011353;28;20450;-70
2021/09/17 00:22:48;;;;;;;58.17;2.80;;;12.10;97.70;;;;;;5012019;28;20447;-70
2021/09/17 00:25:15;;;;;;;58.40;2.57;;;12.10;97.80;;;;;;5011260;28;20453;-70
2021/09/17 00:27:42;;;;;;;58.27;2.70;;;12.00;97.90;;;;;;5011076;28;20493;-70
2021/09/17 00:30:11;;;;;;;58.17;2.43;;;12.00;98.00;;;;;;5011050;28;20510;-70
2021/09/17 00:32:38;;;;;;;58.50;2.70;;;12.00;98.10;;;;;;5011226;28;20549;-69
2021/09/17 00:35:06;;;;;;;58.07;2.63;;;12.00;98.10;;;;;;5011438;28;20479;-69
2021/09/17 00:37:33;;;;;;;58.27;2.70;;;12.00;98.20;;;;;;5011352;28;20480;-69
2021/09/17 00:39:59;;;;;;;58.30;2.60;;;12.00;98.40;;;;;;5011543;28;20456;-69
2021/09/17 00:42:26;;;;;;;58.13;2.60;;;12.00;98.60;;;;;;5015418;28;20452;-70
2021/09/17 00:44:53;;;;;;;58.27;2.50;;;12.10;98.80;;;;;;5015056;28;20799;-69
2021/09/17 00:47:21;;;;;;;58.27;2.70;;;12.10;98.90;;;;;;5012230;28;20478;-69
2021/09/17 00:49:48;;;;;;;58.33;2.77;;;12.00;99.00;;;;;;5014583;28;20456;-70
2021/09/17 00:52:15;;;;;;;58.30;2.60;;;12.10;99.20;;;;;;5015057;28;20461;-69
2021/09/17 00:54:42;;;;;;;57.97;2.60;;;12.10;99.30;;;;;;5014820;28;20450;-70
2021/09/17 00:57:09;;;;;;;58.33;2.70;;;12.10;99.40;;;;;;5014501;28;20486;-69
2021/09/17 00:59:36;;;;;;;58.17;2.80;;;12.10;99.50;;;;;;5014770;28;20461;-69
2021/09/17 01:02:03;;;;;;;58.40;2.60;;;12.10;99.60;;;;;;5015419;28;20485;-70
2021/09/17 01:04:31;;;;;;;58.27;3.07;;;12.10;99.70;;;;;;5014965;28;20454;-69
2021/09/17 01:06:58;;;;;;;58.20;2.57;;;12.10;99.90;;;;;;5014159;28;20472;-70
2021/09/17 01:09:25;;;;;;;58.17;2.50;;;12.10;99.90;;;;;;5014031;28;20461;-69
2021/09/17 01:11:53;;;;;;;58.20;3.27;;;12.20;99.90;;;;;;4993508;28;20534;-70
2021/09/17 01:14:21;;;;;;;58.30;2.70;;;12.20;99.90;;;;;;4994881;28;20479;-70
2021/09/17 01:16:48;;;;;;;58.03;2.47;;;12.20;99.90;;;;;;4994254;28;20490;-70
2021/09/17 01:19:14;;;;;;;58.27;2.80;;;12.20;99.90;;;;;;5009954;28;20886;-70
2021/09/17 01:21:43;;;;;;;58.20;2.53;;;12.20;99.90;;;;;;5014527;28;20961;-70
2021/09/17 01:24:10;;;;;;;57.97;2.60;;;12.20;99.90;;;;;;5015114;28;20529;-70
2021/09/17 01:26:37;;;;;;;58.17;2.50;;;12.20;99.90;;;;;;5014318;28;20466;-70
2021/09/17 01:29:04;;;;;;;58.13;2.70;;;12.20;99.90;;;;;;5014066;28;20553;-70
2021/09/17 01:31:31;;;;;;;58.13;2.63;;;12.20;99.90;;;;;;5014015;28;20533;-70
2021/09/17 01:34:07;;;;;;;58.60;2.90;;;12.30;99.90;;;;;;5014230;28;20453;-71
2021/09/17 01:36:34;;;;;;;58.30;2.87;;;12.30;99.90;;;;;;5013464;28;20495;-70
2021/09/17 01:39:03;;;;;;;58.30;2.80;;;12.30;99.90;;;;;;5014712;28;20446;-70
2021/09/17 01:41:30;;;;;;;58.27;2.87;;;12.40;99.90;;;;;;5014123;28;20452;-70
2021/09/17 01:43:57;;;;;;;58.07;2.67;;;12.40;99.90;;;;;;5014427;28;20813;-71
2021/09/17 01:46:24;;;;;;;58.30;2.80;;;12.40;99.90;;;;;;5013658;28;20552;-70
2021/09/17 01:48:51;;;;;;;58.80;2.80;;;12.40;99.90;;;;;;5013733;28;20562;-71
2021/09/17 01:51:18;;;;;;;58.30;2.53;;;12.40;99.90;;;;;;5028284;28;20463;-71
2021/09/17 01:53:45;;;;;;;57.87;2.47;;;12.40;99.90;;;;;;5033628;28;20449;-71
2021/09/17 01:56:15;;;;;;;58.33;2.80;;;12.40;99.90;;;;;;5032996;28;20895;-71
2021/09/17 01:58:42;;;;;;;58.23;3.00;;;12.50;99.90;;;;;;5033782;28;20453;-71
2021/09/17 02:01:09;;;;;;;57.87;2.50;;;12.60;99.90;;;;;;5033406;28;21036;-71
2021/09/17 02:03:36;;;;;;;58.13;2.63;;;12.60;99.90;;;;;;5033629;28;20933;-70
2021/09/17 02:06:03;;;;;;;58.10;2.50;;;12.60;99.90;;;;;;5032956;28;20888;-71
2021/09/17 02:08:29;;;;;;;58.40;2.70;;;12.60;99.90;;;;;;5033126;28;20480;-71
2021/09/17 02:10:56;;;;;;;58.07;2.40;;;12.70;99.90;;;;;;5032782;28;20449;-71
2021/09/17 02:13:25;;;;;;;58.27;2.67;;;12.70;99.90;;;;;;5033350;28;20573;-71
2021/09/17 02:15:54;;;;;;;58.70;3.47;;;12.70;99.90;;;;;;5032949;28;21096;-70
2021/09/17 02:18:21;;;;;;;58.13;2.70;;;12.70;99.90;;;;;;5033046;28;20477;-71
2021/09/17 02:20:48;;;;;;;58.13;2.60;;;12.80;99.90;;;;;;5033457;28;20461;-71
2021/09/17 02:23:15;;;;;;;58.13;2.47;;;12.70;99.90;;;;;;5013357;28;20549;-71
2021/09/17 02:25:42;;;;;;;58.17;2.70;;;12.80;99.90;;;;;;5013107;28;20468;-71
2021/09/17 02:28:09;;;;;;;57.70;2.53;;;12.80;99.90;;;;;;5012974;28;20925;-71
2021/09/17 02:30:37;;;;;;;58.17;2.60;;;12.80;99.90;;;;;;5012973;28;20465;-70
2021/09/17 02:33:04;;;;;;;57.77;2.50;;;12.80;99.90;;;;;;5012761;28;20456;-71
2021/09/17 02:35:31;;;;;;;58.07;2.70;;;12.80;99.90;;;;;;5012436;28;20516;-71
2021/09/17 02:37:58;;;;;;;57.93;2.37;;;12.80;99.90;;;;;;5012835;28;20468;-71
2021/09/17 02:40:25;;;;;;;58.20;2.77;;;12.80;99.90;;;;;;5013082;28;20454;-71
2021/09/17 02:42:52;;;;;;;57.73;2.57;;;12.80;99.90;;;;;;5013179;28;20472;-71
2021/09/17 02:45:19;;;;;;;58.03;2.80;;;12.80;99.90;;;;;;5013361;28;20537;-70
2021/09/17 02:47:47;;;;;;;57.97;2.50;;;12.80;99.90;;;;;;5012441;28;20652;-71
2021/09/17 02:50:14;;;;;;;58.10;2.70;;;12.80;99.90;;;;;;5012949;28;20854;-71
2021/09/17 02:52:41;;;;;;;57.97;3.10;;;12.90;99.90;;;;;;5012243;28;20457;-71
2021/09/17 02:55:10;;;;;;;58.07;2.57;;;12.90;99.90;;;;;;5029793;28;20455;-71
2021/09/17 02:57:37;;;;;;;58.00;2.63;;;12.90;99.90;;;;;;5031847;28;20491;-70
2021/09/17 03:00:06;;;;;;;57.97;2.50;;;12.90;99.90;;;;;;5032198;28;20450;-70
2021/09/17 03:02:33;;;;;;;58.07;2.77;;;12.80;99.90;;;;;;5032422;28;20463;-71
2021/09/17 03:05:01;;;;;;;57.97;2.40;;;12.80;99.90;;;;;;5031993;28;20455;-71
2021/09/17 03:07:28;;;;;;;58.10;2.60;;;12.80;99.90;;;;;;5032268;28;20882;-70
2021/09/17 03:09:55;;;;;;;57.97;2.57;;;12.80;99.90;;;;;;5031761;28;20536;-71
2021/09/17 03:12:22;;;;;;;57.97;2.50;;;12.80;99.90;;;;;;5032039;28;20894;-71
2021/09/17 03:14:49;;;;;;;57.97;2.87;;;12.80;99.90;;;;;;5031752;28;20545;-71
2021/09/17 03:17:16;;;;;;;57.93;2.70;;;12.80;99.90;;;;;;5031415;28;20580;-71
2021/09/17 03:19:42;;;;;;;58.00;2.60;;;12.90;99.90;;;;;;5032337;28;20445;-71
2021/09/17 03:22:11;;;;;;;57.87;2.70;;;12.80;99.90;;;;;;5031895;28;20449;-70
2021/09/17 03:24:37;;;;;;;57.97;2.87;;;12.90;99.90;;;;;;5027163;28;20664;-71
2021/09/17 03:27:05;;;;;;;57.83;2.50;;;12.90;99.90;;;;;;5011708;28;20498;-70
2021/09/17 03:29:31;;;;;;;58.00;2.50;;;12.90;99.90;;;;;;5012265;28;20548;-71
2021/09/17 03:31:58;;;;;;;57.93;2.70;;;12.80;99.90;;;;;;5012210;28;20456;-70
2021/09/17 03:34:25;;;;;;;58.27;2.60;;;12.80;99.90;;;;;;5011651;28;20449;-70
2021/09/17 03:36:52;;;;;;;58.77;2.90;;;12.90;99.90;;;;;;5011572;28;20494;-69
2021/09/17 03:39:21;;;;;;;58.60;3.10;;;12.80;99.90;;;;;;5011994;28;20457;-69
2021/09/17 03:41:47;;;;;;;58.00;2.50;;;12.80;99.90;;;;;;5011901;28;20544;-69
2021/09/17 03:44:16;;;;;;;58.30;2.90;;;12.90;99.90;;;;;;5012041;28;20494;-70
2021/09/17 03:46:43;;;;;;;57.77;2.57;;;12.90;99.90;;;;;;5011757;28;20887;-70
2021/09/17 03:49:10;;;;;;;58.00;2.70;;;12.90;99.90;;;;;;5012055;28;20480;-69
2021/09/17 03:51:37;;;;;;;57.87;2.50;;;12.90;99.90;;;;;;5011807;28;20465;-70
2021/09/17 03:54:04;;;;;;;58.10;2.60;;;12.90;99.90;;;;;;5011567;28;20536;-70
2021/09/17 03:56:32;;;;;;;58.00;2.50;;;12.90;99.90;;;;;;5009829;28;20585;-69
2021/09/17 03:58:59;;;;;;;58.20;3.13;;;12.90;99.90;;;;;;5011321;28;20954;-70
2021/09/17 04:01:26;;;;;;;57.83;2.60;;;12.90;99.90;;;;;;5011891;28;20529;-69
2021/09/17 04:03:53;;;;;;;58.13;2.60;;;12.90;99.90;;;;;;5011958;28;20901;-69
2021/09/17 04:06:20;;;;;;;57.93;2.70;;;13.00;99.90;;;;;;5011632;28;20552;-69
2021/09/17 04:08:47;;;;;;;58.07;2.77;;;13.00;99.90;;;;;;5011865;28;20478;-69
2021/09/17 04:11:13;;;;;;;57.87;2.60;;;13.00;99.90;;;;;;5011441;28;20481;-70
2021/09/17 04:13:42;;;;;;;57.97;2.53;;;13.00;99.90;;;;;;5011375;28;20449;-70
2021/09/17 04:16:08;;;;;;;58.50;3.37;;;13.00;99.90;;;;;;5013022;28;20451;-70
2021/09/17 04:18:35;;;;;;;57.93;2.50;;;13.00;99.90;;;;;;5015344;28;20447;-69
2021/09/17 04:21:02;;;;;;;58.10;2.57;;;13.10;99.90;;;;;;5015672;28;20545;-69
2021/09/17 04:23:29;;;;;;;58.10;2.63;;;13.10;99.90;;;;;;5015419;28;20450;-70
2021/09/17 04:25:56;;;;;;;58.00;2.43;;;13.10;99.90;;;;;;5015648;28;20815;-70
2021/09/17 04:28:23;;;;;;;58.20;2.70;;;13.10;99.90;;;;;;5014165;28;20933;-70
2021/09/17 04:30:51;;;;;;;58.10;2.60;;;13.10;99.90;;;;;;5015089;28;21028;-69
2021/09/17 04:33:18;;;;;;;57.97;2.50;;;13.00;99.90;;;;;;5015053;28;20455;-69
2021/09/17 04:35:45;;;;;;;58.03;2.50;;;13.00;99.90;;;;;;5014555;28;20459;-70
2021/09/17 04:38:14;;;;;;;58.17;3.37;;;13.00;99.90;;;;;;5014836;28;20557;-70
2021/09/17 04:40:41;;;;;;;57.87;2.60;;;12.90;99.90;;;;;;5015385;28;20450;-70
2021/09/17 04:43:08;;;;;;;58.23;2.80;;;12.90;99.90;;;;;;5015461;28;20446;-70
2021/09/17 04:45:35;;;;;;;57.97;2.70;;;12.90;99.90;;;;;;5014946;28;20457;-72
2021/09/17 04:48:09;;;;;;;58.00;2.70;;;12.80;99.90;;;;;;5015146;28;20463;-70
2021/09/17 04:50:36;;;;;;;58.10;2.60;;;12.70;99.90;;;;;;5015238;28;20449;-70
2021/09/17 04:53:03;;;;;;;58.13;2.87;;;12.70;99.90;;;;;;5015273;28;20454;-70
2021/09/17 04:55:30;;;;;;;58.60;2.70;;;12.60;99.90;;;;;;5014438;28;20580;-69
2021/09/17 04:57:56;;;;;;;58.37;3.10;;;12.60;99.90;;;;;;5014442;28;20584;-70
2021/09/17 05:00:23;;;;;;;58.13;3.10;;;12.50;99.90;;;;;;5012898;28;20529;-71
2021/09/17 05:02:50;;;;;;;58.07;2.80;;;12.40;99.90;;;;;;5014772;28;20469;-71
2021/09/17 05:05:18;;;;;;;58.17;2.70;;;12.40;99.90;;;;;;5014857;28;20544;-71
2021/09/17 05:07:45;;;;;;;58.03;2.47;;;12.30;99.90;;;;;;5014854;28;20467;-71
2021/09/17 05:10:12;;;;;;;58.07;2.40;;;12.30;99.90;;;;;;5014721;28;20480;-71
2021/09/17 05:12:39;;;;;;;57.93;2.53;;;12.30;99.90;;;;;;5014512;28;20457;-71
2021/09/17 05:15:07;;;;;;;58.13;2.50;;;12.30;99.90;;;;;;5014407;28;21053;-71
2021/09/17 05:17:34;;;;;;;57.87;2.50;;;12.40;99.90;;;;;;5013924;28;20579;-71
2021/09/17 05:20:01;;;;;;;58.17;2.50;;;12.40;99.90;;;;;;5014694;28;20970;-71
2021/09/17 05:22:29;;;;;;;58.10;2.67;;;12.40;99.90;;;;;;5014381;28;20454;-71
2021/09/17 05:24:57;;;;;;;58.20;2.67;;;12.40;99.90;;;;;;5014553;28;20454;-71
2021/09/17 05:27:25;;;;;;;57.87;2.50;;;12.50;99.90;;;;;;5013827;28;20837;-71
2021/09/17 05:29:52;;;;;;;58.40;2.70;;;12.50;99.90;;;;;;5014647;28;20468;-71
2021/09/17 05:32:20;;;;;;;57.93;2.67;;;12.60;99.90;;;;;;5019407;28;20540;-71
2021/09/17 05:34:47;;;;;;;57.77;2.57;;;12.70;99.90;;;;;;5033893;28;20457;-71
2021/09/17 05:37:14;;;;;;;58.07;2.43;;;12.70;99.90;;;;;;5033613;28;20495;-71
2021/09/17 05:39:42;;;;;;;58.20;3.10;;;12.80;99.90;;;;;;5033928;28;20545;-71
2021/09/17 05:42:09;;;;;;;58.00;2.80;;;12.80;99.90;;;;;;5033890;28;20449;-71
2021/09/17 05:44:36;;;;;;;57.87;2.53;;;12.80;99.90;;;;;;5033706;28;20557;-71
2021/09/17 05:47:03;;;;;;;58.03;2.80;;;12.90;99.90;;;;;;5033450;28;20843;-70
2021/09/17 05:49:30;;;;;;;57.87;2.90;;;12.90;99.90;;;;;;5033303;28;20450;-70
2021/09/17 05:51:57;;;;;;;59.37;2.90;;;13.00;99.90;;;;;;5033478;28;20456;-70
2021/09/17 05:54:24;;;;;;;57.97;2.50;;;13.00;99.90;;;;;;5033087;28;20449;-70
2021/09/17 05:56:52;;;;;;;58.07;2.50;;;13.10;99.90;;;;;;5033088;28;20493;-70
2021/09/17 05:59:19;;;;;;;58.03;2.73;;;13.10;99.90;;;;;;5032929;28;20488;-70
2021/09/17 06:01:46;;;;;;;57.87;2.50;;;13.20;99.90;;;;;;5033740;28;20865;-69
2021/09/17 06:04:12;;;;;;;58.20;2.60;;;13.30;99.90;;;;;;5031344;28;20453;-69
2021/09/17 06:06:39;;;;;;;57.67;2.60;;;13.30;99.90;;;;;;5033125;28;20472;-69
2021/09/17 06:09:06;;;;;;;57.67;2.50;;;13.40;99.90;;;;;;5033438;28;20471;-69
2021/09/17 06:11:33;;;;;;;58.27;3.33;;;13.40;99.90;;;;;;5033251;28;20457;-69
2021/09/17 06:14:01;;;;;;;58.10;2.77;;;13.40;99.90;;;;;;5032619;28;20455;-70
2021/09/17 06:16:28;;;;;;;57.77;2.50;;;13.40;99.90;;;;;;5032173;28;20501;-70
2021/09/17 06:19:01;;;;;;;58.10;2.60;;;13.50;99.90;;;;;;5033376;28;20572;-70
2021/09/17 06:21:29;;;;;;;58.17;2.77;;;13.50;99.90;;;;;;5033029;28;20975;-70
2021/09/17 06:23:56;;;;;;;58.00;2.67;;;13.50;99.90;;;;;;5033025;28;20449;-70
2021/09/17 06:26:22;;;;;;;57.87;2.53;;;13.60;99.90;;;;;;5032634;28;20475;-70
2021/09/17 06:28:49;;;;;;;58.20;2.80;;;13.60;99.90;;;;;;5033041;28;20544;-70
2021/09/17 06:31:17;;;;;;;57.80;2.70;;;13.70;99.90;;;;;;5032855;28;20546;-70
2021/09/17 06:33:44;;;;;;;57.97;3.00;;;13.60;99.90;;;;;;5032340;28;20537;-70
2021/09/17 06:36:11;;;;;;;58.17;2.60;;;13.60;99.90;;;;;;5015966;28;20460;-70
2021/09/17 06:38:38;;;;;;;57.97;2.87;;;13.60;99.90;;;;;;5011433;28;20573;-70
2021/09/17 06:41:05;;;;;;;58.00;2.80;;;13.70;99.90;;;;;;5013213;28;20473;-70
2021/09/17 06:43:32;;;;;;;58.17;2.60;;;13.70;99.90;;;;;;5013022;28;20451;-70
2021/09/17 06:45:58;;;;;;;57.97;2.70;;;13.80;99.90;;;;;;5012819;28;20874;-70
2021/09/17 06:48:27;;;;;;;58.17;2.80;;;13.90;99.90;;;;;;5013163;28;20522;-70
2021/09/17 06:50:53;;;;;;;58.20;2.70;;;13.90;99.90;;;;;;5011516;28;20502;-70
2021/09/17 06:53:21;;;;;;;58.10;2.90;;;13.90;99.90;;;;;;5012375;28;20879;-70
2021/09/17 06:55:47;;;;;;;58.60;3.50;;;14.00;99.90;;;;;;5012332;28;20797;-70
2021/09/17 06:58:14;;;;;;;58.50;3.00;;;14.10;99.90;;;;;;5012516;28;20934;-69
2021/09/17 07:00:41;;;;;;;58.13;2.87;;;14.10;99.90;;;;;;5012896;28;20533;-70
2021/09/17 07:03:09;;;;;;;58.17;3.13;;;14.10;99.90;;;;;;5012777;28;20453;-70
2021/09/17 07:05:38;;;;;;;57.97;2.97;;;14.10;99.90;;;;;;5011696;28;20455;-70
2021/09/17 07:08:06;;;;;;;58.07;2.50;;;14.20;99.90;;;;;;5011608;28;20490;-70
2021/09/17 07:10:35;;;;;;;57.87;2.57;;;14.30;99.90;;;;;;5013053;28;20525;-69
2021/09/17 07:13:02;;;;;;;57.67;2.50;;;14.30;99.90;;;;;;5012783;28;20545;-70
2021/09/17 07:15:29;;;;;;;57.90;2.70;;;14.40;99.90;;;;;;5012538;28;20826;-70
2021/09/17 07:17:56;;;;;;;58.30;3.30;;;14.40;99.90;;;;;;5012391;28;20486;-70
2021/09/17 07:20:23;;;;;;;58.10;2.70;;;14.50;99.90;;;;;;5012465;28;20490;-70
2021/09/17 07:22:51;;;;;;;57.80;2.57;;;14.60;99.90;;;;;;5012772;28;20615;-70
2021/09/17 07:25:19;;;;;;;58.20;2.60;;;14.80;99.90;;;;;;5012623;28;20455;-69
2021/09/17 07:27:46;;;;;;;58.27;3.17;;;14.80;99.90;;;;;;5012339;28;20532;-69
2021/09/17 07:30:15;;;;;;;57.80;2.77;;;14.90;99.90;;;;;;5012396;28;20557;-69
2021/09/17 07:32:42;;;;;;;57.97;2.50;;;15.10;99.90;;;;;;5012460;28;20536;-69
2021/09/17 07:35:09;;;;;;;58.30;2.80;;;15.20;99.90;;;;;;5012425;28;20539;-69
2021/09/17 07:37:37;;;;;;;58.03;2.90;;;15.30;99.90;;;;;;5011762;28;20498;-69
2021/09/17 07:40:07;;;;;;;58.20;2.70;;;15.50;99.90;;;;;;5012401;28;20517;-70
2021/09/17 07:42:34;;;;;;;58.40;3.47;;;15.60;99.90;;;;;;5012815;28;20453;-69
2021/09/17 07:45:00;;;;;;;58.40;3.20;;;15.70;99.90;;;;;;5010678;28;20468;-69
2021/09/17 07:47:27;;;;;;;57.77;2.70;;;15.90;99.90;;;;;;5008726;28;20564;-70
2021/09/17 07:49:54;;;;;;;58.30;3.00;;;16.00;99.90;;;;;;5011489;28;20540;-70
2021/09/17 07:52:21;;;;;;;58.23;2.80;;;16.10;99.90;;;;;;5012139;28;20455;-70
2021/09/17 07:54:48;;;;;;;58.37;3.20;;;16.20;99.90;;;;;;5012216;28;20477;-70
2021/09/17 07:57:16;;;;;;;58.47;3.00;;;16.30;99.90;;;;;;5011475;28;20552;-70
2021/09/17 07:59:43;;;;;;;58.33;3.00;;;16.30;99.90;;;;;;5012015;28;20953;-70
2021/09/17 08:02:10;;;;;;;59.00;3.57;;;16.40;99.90;;;;;;5011863;28;20507;-70
2021/09/17 08:04:38;;;;;;;58.37;2.80;;;16.50;99.90;;;;;;5011900;28;20956;-69
2021/09/17 08:07:05;;;;;;;58.50;3.23;;;16.60;99.90;;;;;;5010812;28;20476;-69
2021/09/17 08:09:32;;;;;;;58.20;3.23;;;16.60;99.90;;;;;;5011366;28;20463;-69
2021/09/17 08:11:59;;;;;;;58.60;3.17;;;16.60;99.90;;;;;;5011541;28;20545;-69
2021/09/17 08:14:28;;;;;;;58.13;2.57;;;16.60;99.90;;;;;;5011821;28;20842;-69
2021/09/17 08:16:54;;;;;;;59.10;3.40;;;16.60;99.90;;;;;;5011561;28;20491;-70
2021/09/17 08:19:22;;;;;;;58.17;2.60;;;16.60;99.90;;;;;;5019205;28;20515;-71
2021/09/17 08:21:49;;;;;;;58.10;2.33;;;16.60;99.90;;;;;;5031669;28;20556;-70
2021/09/17 08:24:16;;;;;;;58.27;3.37;;;16.60;99.90;;;;;;5031464;28;20937;-70
2021/09/17 08:26:44;;;;;;;58.50;2.93;;;16.60;99.90;;;;;;5030193;28;20486;-70
2021/09/17 08:29:11;;;;;;;58.23;2.70;;;16.80;99.90;;;;;;5030193;28;20461;-70
2021/09/17 08:31:40;;;;;;;58.73;3.13;;;16.90;99.90;;;;;;5031204;28;20536;-70
2021/09/17 08:34:08;;;;;;;58.00;2.60;;;17.10;97.60;;;;;;5031704;28;20449;-71
2021/09/17 08:36:36;;;;;;;58.27;2.70;;;17.20;94.50;;;;;;5031181;28;20461;-70
2021/09/17 08:39:04;;;;;;;58.40;3.10;;;17.30;99.90;;;;;;5031459;28;20584;-71
2021/09/17 08:41:31;;;;;;;58.13;2.53;;;17.40;99.90;;;;;;5031268;28;20449;-70
2021/09/17 08:43:58;;;;;;;58.20;2.70;;;17.50;76.50;;;;;;5031253;28;20548;-70
2021/09/17 08:46:25;;;;;;;59.20;3.73;;;17.60;66.00;;;;;;5030177;28;20999;-70
2021/09/17 08:48:53;;;;;;;57.63;2.50;;;17.70;77.80;;;;;;5030296;28;20453;-70
2021/09/17 08:51:21;;;;;;;58.70;2.50;;;17.80;72.20;;;;;;5025981;28;20449;-70
2021/09/17 08:53:48;;;;;;;57.87;2.60;;;17.90;53.00;;;;;;5031124;28;21028;-70
2021/09/17 08:56:16;;;;;;;57.87;2.67;;;18.00;26.10;;;;;;5028988;28;20464;-70
2021/09/17 08:58:44;;;;;;;58.27;2.60;;;18.00;1.00;;;;;;5030435;28;20489;-70
2021/09/17 09:01:25;;;;;;;58.10;2.60;;;18.10;1.00;;;;;;5031312;28;20486;-70
2021/09/17 09:03:57;;;;;;;58.03;2.70;;;18.10;1.00;;;;;;5034966;28;20455;-70
2021/09/17 09:06:24;;;;;;;58.03;2.20;;;18.20;1.00;;;;;;5034079;28;20473;-70
2021/09/17 09:08:52;;;;;;;57.87;2.70;;;18.20;1.00;;;;;;5033542;28;20456;-70
2021/09/17 09:11:20;;;;;;;58.10;2.20;;;18.20;1.00;;;;;;5034352;28;20452;-70
2021/09/17 09:14:14;;;;;;;57.90;2.80;;;18.20;1.00;;;;;;5035079;28;20450;-70
2021/09/17 09:16:43;;;;;;;58.20;2.90;;;18.30;1.00;;;;;;4998970;28;20532;-70
2021/09/17 09:19:22;;;;;;;58.10;2.80;;;18.40;1.00;;;;;;5034623;28;20477;-70
2021/09/17 09:21:50;;;;;;;58.07;2.30;;;18.50;1.00;;;;;;5034545;28;20446;-70
2021/09/17 09:24:19;;;;;;;58.27;2.50;;;18.50;1.00;;;;;;5034685;28;20444;-70
2021/09/17 09:26:46;;;;;;;57.77;2.70;;;18.60;1.00;;;;;;5032701;28;20494;-70
2021/09/17 09:29:27;;;;;;;58.00;2.43;;;18.60;1.00;;;;;;5033610;28;20545;-70
2021/09/17 09:31:54;;;;;;;58.80;3.33;;;18.80;1.00;;;;;;5033985;28;20461;-70
2021/09/17 09:34:24;;;;;;;58.07;2.70;;;18.90;1.00;;;;;;5034107;28;20989;-70
2021/09/17 09:37:04;;;;;;;58.07;2.60;;;19.10;1.00;;;;;;5034102;28;20498;-70
2021/09/17 09:39:49;;;;;;;58.47;2.83;;;19.20;1.00;;;;;;5034182;28;20493;-70
2021/09/17 09:42:20;;;;;;;58.60;2.90;;;19.40;1.00;;;;;;5034020;28;20460;-70
2021/09/17 09:45:09;;;;;;;59.60;4.27;;;19.60;1.00;;;;;;5034338;28;20458;-70
2021/09/17 09:47:37;;;;;;;58.40;3.17;;;19.80;1.00;;;;;;5033466;28;20580;-70
2021/09/17 09:50:07;;;;;;;58.57;3.07;;;20.00;1.00;;;;;;5033168;28;20448;-70
2021/09/17 09:52:34;;;;;;;58.90;3.63;;;20.10;1.00;;;;;;5033175;28;20445;-70
2021/09/17 09:55:02;;;;;;;58.00;3.33;;;20.30;1.00;;;;;;5034037;28;20464;-70
2021/09/17 09:57:30;;;;;;;58.07;2.50;;;20.40;1.00;;;;;;5033602;28;20461;-70
2021/09/17 10:00:03;;;;;;;57.87;2.60;;;20.60;1.00;;;;;;5017886;28;20576;-70
2021/09/17 10:02:31;;;;;;;58.70;3.13;;;20.60;1.00;;;;;;5014423;28;20450;-71
2021/09/17 10:04:59;;;;;;;57.87;2.70;;;20.80;1.00;;;;;;5013768;28;20546;-71
2021/09/17 10:07:28;;;;;;;58.00;3.60;;;20.90;1.00;;;;;;5013473;28;20477;-71
2021/09/17 10:09:56;;;;;;;57.80;3.13;;;21.00;1.00;;;;;;5012752;28;20456;-71
2021/09/17 10:12:24;;;;;;;59.43;3.93;;;20.90;1.00;;;;;;5013267;28;20495;-71
2021/09/17 10:14:52;;;;;;;58.20;2.57;;;20.70;1.00;;;;;;5013510;28;20453;-70
2021/09/17 10:17:21;;;;;;;57.97;2.90;;;20.70;1.00;;;;;;5013348;28;20554;-70
2021/09/17 10:19:49;;;;;;;58.20;2.40;;;20.60;1.00;;;;;;5013526;28;20573;-71
2021/09/17 10:22:31;;;;;;;58.93;3.50;;;20.70;1.00;;;;;;5013630;28;20541;-71
2021/09/17 10:25:09;;;;;;;58.50;3.17;;;20.90;1.00;;;;;;5013815;28;20468;-71
2021/09/17 10:27:37;;;;;;;58.10;2.70;;;21.10;1.00;;;;;;5012489;28;20895;-71
2021/09/17 10:30:06;;;;;;;58.10;2.57;;;21.20;1.00;;;;;;5011875;28;20541;-71
2021/09/17 10:32:43;;;;;;;57.67;2.40;;;21.20;1.00;;;;;;4991970;28;20490;-69
2021/09/17 10:35:13;;;;;;;57.67;2.37;;;21.40;1.00;;;;;;4992947;28;20455;-69
2021/09/17 10:38:16;;;;;;;58.20;2.40;;;21.60;1.00;;;;;;4993061;28;21053;-70
2021/09/17 10:40:54;;;;;;;57.93;2.40;;;22.00;1.00;;;;;;4975290;28;20462;-70
2021/09/17 10:43:33;;;;;;;58.07;2.60;;;22.20;1.00;;;;;;5023705;28;20480;-70
2021/09/17 10:46:01;;;;;;;57.73;2.40;;;22.30;1.00;;;;;;5032411;28;20904;-70
2021/09/17 10:48:30;;;;;;;57.93;2.50;;;22.10;1.00;;;;;;5011897;28;20536;-70
2021/09/17 10:51:02;;;;;;;58.00;2.40;;;21.80;1.00;;;;;;5012177;28;20456;-71
2021/09/17 10:54:04;;;;;;;58.73;3.00;;;21.50;1.00;;;;;;5012780;28;20477;-71
2021/09/17 10:57:05;;;;;;;57.97;2.33;;;21.50;1.00;;;;;;5012630;28;20462;-70
2021/09/17 10:59:50;;;;;;;57.77;2.50;;;21.80;1.00;;;;;;5013115;28;20506;-71
2021/09/17 11:02:17;;;;;;;58.07;2.50;;;22.10;1.00;;;;;;5013088;28;20461;-71
2021/09/17 11:04:46;;;;;;;58.20;2.60;;;22.30;1.00;;;;;;5012892;28;20446;-71
2021/09/17 11:07:37;;;;;;;57.47;2.60;;;22.60;1.00;;;;;;5012493;28;20500;-71
2021/09/17 11:10:23;;;;;;;58.50;3.07;;;22.80;1.00;;;;;;5012596;28;20448;-71
2021/09/17 11:12:50;;;;;;;57.77;2.40;;;23.00;1.00;;;;;;5012046;28;20475;-71
2021/09/17 11:15:19;;;;;;;58.10;2.70;;;23.00;1.00;;;;;;5012172;28;20450;-71
2021/09/17 11:17:49;;;;;;;58.20;2.40;;;23.20;1.00;;;;;;5012845;28;20571;-71
2021/09/17 11:20:19;;;;;;;58.03;2.57;;;23.30;1.00;;;;;;5011627;28;20490;-71
2021/09/17 11:22:58;;;;;;;57.90;2.30;;;23.10;1.00;;;;;;5012767;28;20458;-71
2021/09/17 11:25:29;;;;;;;58.30;2.97;;;22.70;1.00;;;;;;5011989;28;20861;-71
2021/09/17 11:27:56;;;;;;;57.97;2.30;;;22.50;1.00;;;;;;5012229;28;20713;-71
2021/09/17 11:30:25;;;;;;;57.73;2.10;;;23.20;1.00;;;;;;5011715;28;20546;-71
2021/09/17 11:32:53;;;;;;;57.90;2.40;;;24.20;1.00;;;;;;5011344;28;20460;-71
2021/09/17 11:35:20;;;;;;;58.27;2.77;;;25.60;1.00;;;;;;5011970;28;20446;-69
2021/09/17 11:37:54;;;;;;;58.20;2.70;;;26.90;1.00;;;;;;5012253;28;20888;-69
2021/09/17 11:40:22;;;;;;;57.80;2.33;;;27.60;1.00;;;;;;5012389;28;20493;-70
2021/09/17 11:42:50;;;;;;;57.53;2.27;;;28.60;1.00;;;;;;5012033;28;20966;-70
2021/09/17 11:45:19;;;;;;;57.70;2.37;;;29.40;1.00;;;;;;5012309;28;20574;-70
2021/09/17 11:47:48;;;;;;;57.50;2.10;;;30.20;1.00;;;;;;5012515;28;20504;-70
2021/09/17 11:50:16;;;;;;;57.47;2.07;;;30.80;1.00;;;;;;5010386;28;20493;-71
2021/09/17 11:52:45;;;;;;;57.23;2.00;;;30.70;1.00;;;;;;5011305;28;20946;-70
2021/09/17 11:55:14;;;;;;;57.57;2.10;;;30.60;1.00;;;;;;5011674;28;20512;-70
2021/09/17 11:57:42;;;;;;;57.07;2.20;;;30.50;1.00;;;;;;5011716;28;20509;-70
2021/09/17 12:00:13;;;;;;;57.30;2.60;;;29.90;1.00;;;;;;5029584;28;20568;-70
2021/09/17 12:02:40;;;;;;;57.47;2.23;;;30.10;1.00;;;;;;5032306;28;20441;-70
2021/09/17 12:05:10;;;;;;;58.03;2.70;;;29.80;1.00;;;;;;5032027;28;20877;-70
2021/09/17 12:07:37;;;;;;;57.43;2.50;;;29.00;1.00;;;;;;5031264;28;20496;-70
2021/09/17 12:10:12;;;;;;;57.50;2.27;;;28.30;1.00;;;;;;5031410;28;20441;-70
2021/09/17 12:12:41;;;;;;;57.47;2.23;;;27.70;1.00;;;;;;5031060;28;20447;-70
2021/09/17 12:15:12;;;;;;;57.77;2.10;;;27.10;1.00;;;;;;5031491;28;20452;-70
2021/09/17 12:17:52;;;;;;;58.60;3.13;;;26.50;1.00;;;;;;5031622;28;20476;-70
2021/09/17 12:20:19;;;;;;;57.80;2.30;;;25.90;1.00;;;;;;5031592;28;20484;-70
2021/09/17 12:22:56;;;;;;;58.27;2.50;;;25.50;1.00;;;;;;5030131;28;20953;-70
2021/09/17 12:25:28;;;;;;;57.90;2.40;;;25.20;1.00;;;;;;5031666;28;20463;-72
2021/09/17 12:27:57;;;;;;;57.90;2.33;;;24.90;1.00;;;;;;5031256;28;20568;-70
2021/09/17 12:30:30;;;;;;;57.87;2.20;;;24.80;1.00;;;;;;5030983;28;20457;-70
2021/09/17 12:33:07;;;;;;;57.97;2.20;;;24.70;1.00;;;;;;5030542;28;20457;-70
2021/09/17 12:35:34;;;;;;;58.10;2.50;;;24.70;1.00;;;;;;5030965;28;20455;-70
2021/09/17 12:38:03;;;;;;;57.83;2.07;;;24.70;1.00;;;;;;5034628;28;20469;-70
2021/09/17 12:40:31;;;;;;;58.30;2.60;;;25.60;1.00;;;;;;5035487;28;20485;-70
2021/09/17 12:42:59;;;;;;;57.57;1.90;;;27.30;1.00;;;;;;5035464;28;20456;-70
2021/09/17 12:45:28;;;;;;;57.57;2.30;;;28.50;1.00;;;;;;5035209;28;20454;-70
2021/09/17 12:47:56;;;;;;;57.40;2.10;;;29.00;1.00;;;;;;5034967;28;20555;-70